sensor_id;sensor_type;location;lat;lon;timestamp;P1;durP1;ratioP1;P2;durP2;ratioP2
9186;SDS011;7273;48.902;9.410;2024-03-02T00:00:18;5.15;;;1.30;;
9186;SDS011;7273;48.902;9.410;2024-03-02T00:02:47;3.97;;;1.10;;
9186;SDS011;7273;48.902;9.410;2024-03-02T00:05:18;1.77;;;0.98;;
9186;SDS011;7273;48.902;9.410;2024-03-02T00:07:45;5.00;;;1.02;;
9186;SDS011;7273;48.902;9.410;2024-03-02T00:10:19;1.20;;;0.90;;
9186;SDS011;7273;48.902;9.410;2024-03-02T00:12:50;1.10;;;0.47;;
9186;SDS011;7273;48.902;9.410;2024-03-02T00:15:33;2.45;;;1.65;;
9186;SDS011;7273;48.902;9.410;2024-03-02T00:18:02;1.88;;;1.15;;
9186;SDS011;7273;48.902;9.410;2024-03-02T00:20:29;2.45;;;1.23;;
9186;SDS011;7273;48.902;9.410;2024-03-02T00:23:03;3.05;;;1.35;;
9186;SDS011;7273;48.902;9.410;2024-03-02T00:25:40;4.10;;;2.28;;
9186;SDS011;7273;48.902;9.410;2024-03-02T00:28:19;1.17;;;1.08;;
9186;SDS011;7273;48.902;9.410;2024-03-02T00:30:55;2.67;;;1.58;;
9186;SDS011;7273;48.902;9.410;2024-03-02T00:33:44;1.20;;;0.93;;
9186;SDS011;7273;48.902;9.410;2024-03-02T00:36:11;2.88;;;0.88;;
9186;SDS011;7273;48.902;9.410;2024-03-02T00:38:48;3.50;;;2.13;;
9186;SDS011;7273;48.902;9.410;2024-03-02T00:41:29;2.85;;;0.93;;
9186;SDS011;7273;48.902;9.410;2024-03-02T00:44:00;2.60;;;1.42;;
9186;SDS011;7273;48.902;9.410;2024-03-02T00:46:32;10.63;;;1.65;;
9186;SDS011;7273;48.902;9.410;2024-03-02T00:49:00;0.40;;;0.40;;
9186;SDS011;7273;48.902;9.410;2024-03-02T00:51:28;2.38;;;0.68;;
9186;SDS011;7273;48.902;9.410;2024-03-02T00:53:57;3.10;;;1.45;;
9186;SDS011;7273;48.902;9.410;2024-03-02T00:56:24;1.65;;;0.90;;
9186;SDS011;7273;48.902;9.410;2024-03-02T00:58:51;2.60;;;1.38;;
9186;SDS011;7273;48.902;9.410;2024-03-02T01:01:17;2.85;;;1.60;;
9186;SDS011;7273;48.902;9.410;2024-03-02T01:03:44;2.83;;;1.98;;
9186;SDS011;7273;48.902;9.410;2024-03-02T01:06:10;0.65;;;0.60;;
9186;SDS011;7273;48.902;9.410;2024-03-02T01:08:37;2.58;;;0.65;;
9186;SDS011;7273;48.902;9.410;2024-03-02T01:11:04;0.73;;;0.60;;
9186;SDS011;7273;48.902;9.410;2024-03-02T01:13:30;1.40;;;0.80;;
9186;SDS011;7273;48.902;9.410;2024-03-02T01:15:56;1.50;;;0.80;;
9186;SDS011;7273;48.902;9.410;2024-03-02T06:20:42;2.92;;;1.35;;
9186;SDS011;7273;48.902;9.410;2024-03-02T06:23:07;2.40;;;1.25;;
9186;SDS011;7273;48.902;9.410;2024-03-02T06:25:33;2.88;;;1.63;;
9186;SDS011;7273;48.902;9.410;2024-03-02T06:27:58;1.33;;;0.63;;
9186;SDS011;7273;48.902;9.410;2024-03-02T06:30:24;1.50;;;0.75;;
9186;SDS011;7273;48.902;9.410;2024-03-02T06:32:49;0.13;;;0.13;;
9186;SDS011;7273;48.902;9.410;2024-03-02T06:35:15;2.83;;;1.53;;
9186;SDS011;7273;48.902;9.410;2024-03-02T06:37:40;1.58;;;1.02;;
9186;SDS011;7273;48.902;9.410;2024-03-02T06:40:06;3.13;;;1.58;;
9186;SDS011;7273;48.902;9.410;2024-03-02T06:42:35;0.85;;;0.80;;
9186;SDS011;7273;48.902;9.410;2024-03-02T06:45:01;3.42;;;0.77;;
9186;SDS011;7273;48.902;9.410;2024-03-02T06:47:27;3.03;;;1.15;;
9186;SDS011;7273;48.902;9.410;2024-03-02T06:49:53;1.60;;;0.77;;
9186;SDS011;7273;48.902;9.410;2024-03-02T06:52:18;1.35;;;1.25;;
9186;SDS011;7273;48.902;9.410;2024-03-02T06:54:45;2.53;;;1.52;;
9186;SDS011;7273;48.902;9.410;2024-03-02T06:57:10;0.00;;;0.00;;
9186;SDS011;7273;48.902;9.410;2024-03-02T06:59:36;1.08;;;0.85;;
9186;SDS011;7273;48.902;9.410;2024-03-02T07:02:01;1.75;;;0.50;;
9186;SDS011;7273;48.902;9.410;2024-03-02T07:04:27;1.45;;;1.15;;
9186;SDS011;7273;48.902;9.410;2024-03-02T07:06:52;3.42;;;1.17;;
9186;SDS011;7273;48.902;9.410;2024-03-02T07:09:18;1.23;;;0.75;;
9186;SDS011;7273;48.902;9.410;2024-03-02T07:11:47;0.57;;;0.57;;
9186;SDS011;7273;48.902;9.410;2024-03-02T07:14:12;2.28;;;1.48;;
9186;SDS011;7273;48.902;9.410;2024-03-02T07:16:38;3.03;;;2.10;;
9186;SDS011;7273;48.902;9.410;2024-03-02T07:19:05;3.60;;;1.15;;
9186;SDS011;7273;48.902;9.410;2024-03-02T07:21:31;3.30;;;0.88;;
9186;SDS011;7273;48.902;9.410;2024-03-02T07:23:57;0.95;;;0.80;;
9186;SDS011;7273;48.902;9.410;2024-03-02T07:26:24;1.13;;;1.00;;
9186;SDS011;7273;48.902;9.410;2024-03-02T07:28:50;1.13;;;0.93;;
9186;SDS011;7273;48.902;9.410;2024-03-02T07:31:16;3.25;;;1.02;;
9186;SDS011;7273;48.902;9.410;2024-03-02T07:33:43;0.57;;;0.57;;
9186;SDS011;7273;48.902;9.410;2024-03-02T07:36:09;7.00;;;0.50;;
9186;SDS011;7273;48.902;9.410;2024-03-02T07:38:35;1.55;;;0.50;;
9186;SDS011;7273;48.902;9.410;2024-03-02T07:41:01;5.80;;;1.00;;
9186;SDS011;7273;48.902;9.410;2024-03-02T07:43:26;2.22;;;1.13;;
9186;SDS011;7273;48.902;9.410;2024-03-02T07:45:52;1.33;;;1.17;;
9186;SDS011;7273;48.902;9.410;2024-03-02T07:48:17;2.47;;;0.75;;
9186;SDS011;7273;48.902;9.410;2024-03-02T07:50:43;2.38;;;1.52;;
9186;SDS011;7273;48.902;9.410;2024-03-02T07:53:08;1.63;;;1.52;;
9186;SDS011;7273;48.902;9.410;2024-03-02T07:55:34;3.20;;;1.42;;
9186;SDS011;7273;48.902;9.410;2024-03-02T07:58:02;0.73;;;0.60;;
9186;SDS011;7273;48.902;9.410;2024-03-02T08:00:28;3.58;;;1.23;;
9186;SDS011;7273;48.902;9.410;2024-03-02T08:02:53;0.77;;;0.70;;
9186;SDS011;7273;48.902;9.410;2024-03-02T08:05:19;0.80;;;0.70;;
9186;SDS011;7273;48.902;9.410;2024-03-02T08:07:45;0.55;;;0.50;;
9186;SDS011;7273;48.902;9.410;2024-03-02T08:10:11;0.28;;;0.28;;
9186;SDS011;7273;48.902;9.410;2024-03-02T08:12:37;1.08;;;0.88;;
9186;SDS011;7273;48.902;9.410;2024-03-02T08:15:02;1.45;;;1.27;;
9186;SDS011;7273;48.902;9.410;2024-03-02T08:17:29;3.03;;;1.20;;
9186;SDS011;7273;48.902;9.410;2024-03-02T08:19:55;1.42;;;0.85;;
9186;SDS011;7273;48.902;9.410;2024-03-02T08:22:20;1.77;;;0.75;;
9186;SDS011;7273;48.902;9.410;2024-03-02T08:24:46;0.55;;;0.38;;
9186;SDS011;7273;48.902;9.410;2024-03-02T08:27:12;3.60;;;1.08;;
9186;SDS011;7273;48.902;9.410;2024-03-02T08:29:37;1.27;;;0.70;;
9186;SDS011;7273;48.902;9.410;2024-03-02T08:32:03;0.10;;;0.10;;
9186;SDS011;7273;48.902;9.410;2024-03-02T08:34:29;1.27;;;0.35;;
9186;SDS011;7273;48.902;9.410;2024-03-02T08:36:54;0.25;;;0.20;;
9186;SDS011;7273;48.902;9.410;2024-03-02T08:39:20;2.55;;;1.55;;
9186;SDS011;7273;48.902;9.410;2024-03-02T08:41:46;4.95;;;1.08;;
9186;SDS011;7273;48.902;9.410;2024-03-02T08:44:12;1.42;;;0.65;;
9186;SDS011;7273;48.902;9.410;2024-03-02T08:46:41;0.93;;;0.70;;
9186;SDS011;7273;48.902;9.410;2024-03-02T08:51:32;1.00;;;0.55;;
9186;SDS011;7273;48.902;9.410;2024-03-02T08:53:57;1.38;;;0.52;;
9186;SDS011;7273;48.902;9.410;2024-03-02T08:56:23;1.05;;;0.43;;
9186;SDS011;7273;48.902;9.410;2024-03-02T08:58:49;0.85;;;0.60;;
9186;SDS011;7273;48.902;9.410;2024-03-02T09:01:15;1.45;;;0.57;;
9186;SDS011;7273;48.902;9.410;2024-03-02T09:03:41;1.38;;;1.02;;
9186;SDS011;7273;48.902;9.410;2024-03-02T09:06:09;2.15;;;0.98;;
9186;SDS011;7273;48.902;9.410;2024-03-02T09:08:35;0.95;;;0.47;;
9186;SDS011;7273;48.902;9.410;2024-03-02T09:11:01;4.75;;;0.50;;
9186;SDS011;7273;48.902;9.410;2024-03-02T09:13:28;2.22;;;0.60;;
9186;SDS011;7273;48.902;9.410;2024-03-02T09:15:54;0.65;;;0.47;;
9186;SDS011;7273;48.902;9.410;2024-03-02T09:18:19;1.55;;;0.30;;
9186;SDS011;7273;48.902;9.410;2024-03-02T09:20:44;0.55;;;0.55;;
9186;SDS011;7273;48.902;9.410;2024-03-02T09:23:11;0.20;;;0.20;;
9186;SDS011;7273;48.902;9.410;2024-03-02T09:25:36;3.85;;;0.57;;
9186;SDS011;7273;48.902;9.410;2024-03-02T09:28:02;2.45;;;1.70;;
9186;SDS011;7273;48.902;9.410;2024-03-02T09:30:28;0.30;;;0.30;;
9186;SDS011;7273;48.902;9.410;2024-03-02T09:32:53;3.20;;;1.25;;
9186;SDS011;7273;48.902;9.410;2024-03-02T09:35:19;1.33;;;0.47;;
9186;SDS011;7273;48.902;9.410;2024-03-02T09:37:44;2.20;;;1.42;;
9186;SDS011;7273;48.902;9.410;2024-03-02T09:40:10;1.50;;;0.65;;
9186;SDS011;7273;48.902;9.410;2024-03-02T09:42:36;0.80;;;0.70;;
9186;SDS011;7273;48.902;9.410;2024-03-02T09:45:02;1.08;;;0.57;;
9186;SDS011;7273;48.902;9.410;2024-03-02T09:47:27;0.50;;;0.40;;
9186;SDS011;7273;48.902;9.410;2024-03-02T09:49:53;1.13;;;0.50;;
9186;SDS011;7273;48.902;9.410;2024-03-02T09:52:20;0.43;;;0.32;;
9186;SDS011;7273;48.902;9.410;2024-03-02T09:54:47;1.05;;;0.73;;
9186;SDS011;7273;48.902;9.410;2024-03-02T09:57:13;0.50;;;0.50;;
9186;SDS011;7273;48.902;9.410;2024-03-02T09:59:38;5.28;;;1.08;;
9186;SDS011;7273;48.902;9.410;2024-03-02T10:02:03;0.93;;;0.75;;
9186;SDS011;7273;48.902;9.410;2024-03-02T10:04:32;1.92;;;0.77;;
9186;SDS011;7273;48.902;9.410;2024-03-02T10:07:16;2.78;;;0.80;;
9186;SDS011;7273;48.902;9.410;2024-03-02T10:09:46;0.85;;;0.22;;
9186;SDS011;7273;48.902;9.410;2024-03-02T10:12:13;0.57;;;0.25;;
9186;SDS011;7273;48.902;9.410;2024-03-02T10:14:40;1.60;;;0.90;;
9186;SDS011;7273;48.902;9.410;2024-03-02T10:17:07;0.65;;;0.30;;
9186;SDS011;7273;48.902;9.410;2024-03-02T10:19:34;4.05;;;0.88;;
9186;SDS011;7273;48.902;9.410;2024-03-02T10:22:03;0.80;;;0.55;;
9186;SDS011;7273;48.902;9.410;2024-03-02T10:24:40;0.88;;;0.60;;
9186;SDS011;7273;48.902;9.410;2024-03-02T10:27:10;1.60;;;0.85;;
9186;SDS011;7273;48.902;9.410;2024-03-02T10:29:40;0.60;;;0.60;;
9186;SDS011;7273;48.902;9.410;2024-03-02T10:32:09;1.00;;;0.55;;
9186;SDS011;7273;48.902;9.410;2024-03-02T10:34:42;2.00;;;0.77;;
9186;SDS011;7273;48.902;9.410;2024-03-02T10:37:10;2.58;;;0.80;;
9186;SDS011;7273;48.902;9.410;2024-03-02T10:39:36;0.75;;;0.52;;
9186;SDS011;7273;48.902;9.410;2024-03-02T10:42:03;2.30;;;0.63;;
9186;SDS011;7273;48.902;9.410;2024-03-02T10:44:29;0.85;;;0.43;;
9186;SDS011;7273;48.902;9.410;2024-03-02T10:46:55;2.50;;;1.38;;
9186;SDS011;7273;48.902;9.410;2024-03-02T10:49:22;1.27;;;0.82;;
9186;SDS011;7273;48.902;9.410;2024-03-02T10:51:49;0.82;;;0.45;;
9186;SDS011;7273;48.902;9.410;2024-03-02T10:54:14;0.22;;;0.22;;
9186;SDS011;7273;48.902;9.410;2024-03-02T10:56:40;2.60;;;0.80;;
9186;SDS011;7273;48.902;9.410;2024-03-02T10:59:24;0.77;;;0.47;;
9186;SDS011;7273;48.902;9.410;2024-03-02T11:02:02;3.15;;;0.40;;
9186;SDS011;7273;48.902;9.410;2024-03-02T11:04:29;1.63;;;0.90;;
9186;SDS011;7273;48.902;9.410;2024-03-02T11:07:09;1.58;;;0.73;;
9186;SDS011;7273;48.902;9.410;2024-03-02T11:09:37;0.98;;;0.30;;
9186;SDS011;7273;48.902;9.410;2024-03-02T11:12:09;2.75;;;0.77;;
9186;SDS011;7273;48.902;9.410;2024-03-02T11:14:41;1.25;;;0.70;;
9186;SDS011;7273;48.902;9.410;2024-03-02T11:17:08;0.65;;;0.45;;
9186;SDS011;7273;48.902;9.410;2024-03-02T11:19:35;1.55;;;0.55;;
9186;SDS011;7273;48.902;9.410;2024-03-02T11:24:29;1.42;;;0.57;;
9186;SDS011;7273;48.902;9.410;2024-03-02T11:26:58;1.70;;;0.70;;
9186;SDS011;7273;48.902;9.410;2024-03-02T11:32:04;0.90;;;0.75;;
9186;SDS011;7273;48.902;9.410;2024-03-02T11:34:31;0.90;;;0.57;;
9186;SDS011;7273;48.902;9.410;2024-03-02T11:36:59;0.98;;;0.50;;
9186;SDS011;7273;48.902;9.410;2024-03-02T11:39:30;7.05;;;1.00;;
9186;SDS011;7273;48.902;9.410;2024-03-02T11:41:56;1.55;;;0.70;;
9186;SDS011;7273;48.902;9.410;2024-03-02T11:44:22;2.55;;;0.77;;
9186;SDS011;7273;48.902;9.410;2024-03-02T11:46:57;2.25;;;0.90;;
9186;SDS011;7273;48.902;9.410;2024-03-02T11:52:15;0.93;;;0.70;;
9186;SDS011;7273;48.902;9.410;2024-03-02T11:54:43;0.82;;;0.73;;
9186;SDS011;7273;48.902;9.410;2024-03-02T11:57:20;0.88;;;0.88;;
9186;SDS011;7273;48.902;9.410;2024-03-02T11:59:49;1.17;;;0.52;;
9186;SDS011;7273;48.902;9.410;2024-03-02T12:02:16;0.95;;;0.50;;
9186;SDS011;7273;48.902;9.410;2024-03-02T12:04:43;0.90;;;0.68;;
9186;SDS011;7273;48.902;9.410;2024-03-02T12:07:10;0.50;;;0.30;;
9186;SDS011;7273;48.902;9.410;2024-03-02T12:09:36;1.17;;;0.73;;
9186;SDS011;7273;48.902;9.410;2024-03-02T12:12:08;1.25;;;0.50;;
9186;SDS011;7273;48.902;9.410;2024-03-02T12:14:35;0.73;;;0.60;;
9186;SDS011;7273;48.902;9.410;2024-03-02T12:17:02;0.38;;;0.20;;
9186;SDS011;7273;48.902;9.410;2024-03-02T12:19:29;0.15;;;0.15;;
9186;SDS011;7273;48.902;9.410;2024-03-02T12:21:59;0.30;;;0.30;;
9186;SDS011;7273;48.902;9.410;2024-03-02T12:24:26;2.65;;;0.88;;
9186;SDS011;7273;48.902;9.410;2024-03-02T12:26:53;1.73;;;0.30;;
9186;SDS011;7273;48.902;9.410;2024-03-02T12:29:19;1.17;;;0.40;;
9186;SDS011;7273;48.902;9.410;2024-03-02T12:31:45;1.73;;;0.75;;
9186;SDS011;7273;48.902;9.410;2024-03-02T12:34:13;0.70;;;0.65;;
9186;SDS011;7273;48.902;9.410;2024-03-02T12:36:39;0.95;;;0.57;;
9186;SDS011;7273;48.902;9.410;2024-03-02T12:39:06;0.38;;;0.38;;
9186;SDS011;7273;48.902;9.410;2024-03-02T12:41:35;2.33;;;0.65;;
9186;SDS011;7273;48.902;9.410;2024-03-02T12:44:03;0.60;;;0.45;;
9186;SDS011;7273;48.902;9.410;2024-03-02T12:46:30;0.60;;;0.47;;
9186;SDS011;7273;48.902;9.410;2024-03-02T12:48:56;0.85;;;0.45;;
9186;SDS011;7273;48.902;9.410;2024-03-02T12:51:21;0.75;;;0.47;;
9186;SDS011;7273;48.902;9.410;2024-03-02T12:53:53;0.90;;;0.30;;
9186;SDS011;7273;48.902;9.410;2024-03-02T12:56:21;3.05;;;0.52;;
9186;SDS011;7273;48.902;9.410;2024-03-02T12:58:47;0.50;;;0.47;;
9186;SDS011;7273;48.902;9.410;2024-03-02T13:01:14;0.40;;;0.32;;
9186;SDS011;7273;48.902;9.410;2024-03-02T13:03:40;0.82;;;0.35;;
9186;SDS011;7273;48.902;9.410;2024-03-02T13:06:06;0.20;;;0.20;;
9186;SDS011;7273;48.902;9.410;2024-03-02T13:08:32;0.30;;;0.20;;
9186;SDS011;7273;48.902;9.410;2024-03-02T13:10:58;0.40;;;0.32;;
9186;SDS011;7273;48.902;9.410;2024-03-02T13:13:24;0.73;;;0.32;;
9186;SDS011;7273;48.902;9.410;2024-03-02T13:15:49;0.30;;;0.25;;
9186;SDS011;7273;48.902;9.410;2024-03-02T13:18:17;0.70;;;0.70;;
9186;SDS011;7273;48.902;9.410;2024-03-02T13:20:43;0.30;;;0.30;;
9186;SDS011;7273;48.902;9.410;2024-03-02T13:23:08;0.80;;;0.20;;
9186;SDS011;7273;48.902;9.410;2024-03-02T13:25:33;0.17;;;0.17;;
9186;SDS011;7273;48.902;9.410;2024-03-02T13:27:59;0.22;;;0.22;;
9186;SDS011;7273;48.902;9.410;2024-03-02T13:30:25;0.40;;;0.20;;
9186;SDS011;7273;48.902;9.410;2024-03-02T13:32:50;0.10;;;0.10;;
9186;SDS011;7273;48.902;9.410;2024-03-02T13:35:16;0.50;;;0.50;;
9186;SDS011;7273;48.902;9.410;2024-03-02T13:37:42;1.13;;;0.32;;
9186;SDS011;7273;48.902;9.410;2024-03-02T13:40:07;0.35;;;0.20;;
9186;SDS011;7273;48.902;9.410;2024-03-02T13:42:38;1.75;;;0.17;;
9186;SDS011;7273;48.902;9.410;2024-03-02T13:45:05;0.60;;;0.20;;
9186;SDS011;7273;48.902;9.410;2024-03-02T13:47:31;0.17;;;0.17;;
9186;SDS011;7273;48.902;9.410;2024-03-02T13:49:57;0.03;;;0.03;;
9186;SDS011;7273;48.902;9.410;2024-03-02T13:52:23;0.10;;;0.10;;
9186;SDS011;7273;48.902;9.410;2024-03-02T13:54:50;2.17;;;0.22;;
9186;SDS011;7273;48.902;9.410;2024-03-02T13:57:17;0.20;;;0.10;;
9186;SDS011;7273;48.902;9.410;2024-03-02T13:59:44;0.10;;;0.10;;
9186;SDS011;7273;48.902;9.410;2024-03-02T14:02:10;2.05;;;0.32;;
9186;SDS011;7273;48.902;9.410;2024-03-02T14:04:36;2.05;;;0.20;;
9186;SDS011;7273;48.902;9.410;2024-03-02T14:07:04;0.95;;;0.40;;
9186;SDS011;7273;48.902;9.410;2024-03-02T14:09:33;0.40;;;0.40;;
9186;SDS011;7273;48.902;9.410;2024-03-02T14:11:58;0.50;;;0.40;;
9186;SDS011;7273;48.902;9.410;2024-03-02T14:14:26;0.35;;;0.20;;
9186;SDS011;7273;48.902;9.410;2024-03-02T14:16:52;0.43;;;0.20;;
9186;SDS011;7273;48.902;9.410;2024-03-02T14:19:19;0.10;;;0.10;;
9186;SDS011;7273;48.902;9.410;2024-03-02T14:21:44;0.65;;;0.63;;
9186;SDS011;7273;48.902;9.410;2024-03-02T14:24:10;0.25;;;0.22;;
9186;SDS011;7273;48.902;9.410;2024-03-02T14:26:36;0.20;;;0.20;;
9186;SDS011;7273;48.902;9.410;2024-03-02T14:29:02;0.17;;;0.15;;
9186;SDS011;7273;48.902;9.410;2024-03-02T14:31:28;0.25;;;0.10;;
9186;SDS011;7273;48.902;9.410;2024-03-02T14:33:54;1.10;;;0.55;;
9186;SDS011;7273;48.902;9.410;2024-03-02T14:36:19;0.28;;;0.20;;
9186;SDS011;7273;48.902;9.410;2024-03-02T14:38:45;0.10;;;0.10;;
9186;SDS011;7273;48.902;9.410;2024-03-02T14:41:10;0.25;;;0.22;;
9186;SDS011;7273;48.902;9.410;2024-03-02T14:43:36;0.45;;;0.35;;
9186;SDS011;7273;48.902;9.410;2024-03-02T14:46:02;0.20;;;0.20;;
9186;SDS011;7273;48.902;9.410;2024-03-02T14:48:28;0.35;;;0.35;;
9186;SDS011;7273;48.902;9.410;2024-03-02T14:50:54;0.43;;;0.30;;
9186;SDS011;7273;48.902;9.410;2024-03-02T14:53:19;0.68;;;0.32;;
9186;SDS011;7273;48.902;9.410;2024-03-02T14:55:45;1.27;;;0.45;;
9186;SDS011;7273;48.902;9.410;2024-03-02T14:58:11;1.27;;;0.30;;
9186;SDS011;7273;48.902;9.410;2024-03-02T15:00:36;0.57;;;0.32;;
9186;SDS011;7273;48.902;9.410;2024-03-02T15:03:02;0.40;;;0.20;;
9186;SDS011;7273;48.902;9.410;2024-03-02T15:07:55;0.23;;;0.17;;
9186;SDS011;7273;48.902;9.410;2024-03-02T15:10:23;0.30;;;0.30;;
9186;SDS011;7273;48.902;9.410;2024-03-02T15:12:49;0.40;;;0.40;;
9186;SDS011;7273;48.902;9.410;2024-03-02T15:15:15;0.20;;;0.20;;
9186;SDS011;7273;48.902;9.410;2024-03-02T15:17:40;0.00;;;0.00;;
9186;SDS011;7273;48.902;9.410;2024-03-02T15:20:06;0.00;;;0.00;;
9186;SDS011;7273;48.902;9.410;2024-03-02T15:22:32;0.22;;;0.22;;
9186;SDS011;7273;48.902;9.410;2024-03-02T15:24:58;0.28;;;0.28;;
9186;SDS011;7273;48.902;9.410;2024-03-02T15:27:23;0.25;;;0.20;;
9186;SDS011;7273;48.902;9.410;2024-03-02T15:29:50;0.20;;;0.20;;
9186;SDS011;7273;48.902;9.410;2024-03-02T15:32:17;0.05;;;0.05;;
9186;SDS011;7273;48.902;9.410;2024-03-02T15:34:42;0.30;;;0.17;;
9186;SDS011;7273;48.902;9.410;2024-03-02T15:37:08;0.10;;;0.10;;
9186;SDS011;7273;48.902;9.410;2024-03-02T15:39:33;0.20;;;0.20;;
9186;SDS011;7273;48.902;9.410;2024-03-02T15:41:59;0.52;;;0.25;;
9186;SDS011;7273;48.902;9.410;2024-03-02T15:44:24;0.22;;;0.20;;
9186;SDS011;7273;48.902;9.410;2024-03-02T15:46:50;1.02;;;0.20;;
9186;SDS011;7273;48.902;9.410;2024-03-02T15:49:15;0.10;;;0.10;;
9186;SDS011;7273;48.902;9.410;2024-03-02T15:51:41;0.05;;;0.05;;
9186;SDS011;7273;48.902;9.410;2024-03-02T15:54:09;0.50;;;0.47;;
9186;SDS011;7273;48.902;9.410;2024-03-02T15:56:37;1.65;;;0.63;;
9186;SDS011;7273;48.902;9.410;2024-03-02T15:59:04;0.73;;;0.30;;
9186;SDS011;7273;48.902;9.410;2024-03-02T16:01:30;0.93;;;0.38;;
9186;SDS011;7273;48.902;9.410;2024-03-02T16:03:56;0.30;;;0.30;;
9186;SDS011;7273;48.902;9.410;2024-03-02T16:06:22;0.90;;;0.40;;
9186;SDS011;7273;48.902;9.410;2024-03-02T16:08:47;0.17;;;0.17;;
9186;SDS011;7273;48.902;9.410;2024-03-02T16:11:12;0.63;;;0.35;;
9186;SDS011;7273;48.902;9.410;2024-03-02T16:13:38;0.98;;;0.35;;
9186;SDS011;7273;48.902;9.410;2024-03-02T16:16:03;0.10;;;0.10;;
9186;SDS011;7273;48.902;9.410;2024-03-02T16:18:29;2.45;;;1.08;;
9186;SDS011;7273;48.902;9.410;2024-03-02T16:20:54;3.72;;;1.40;;
9186;SDS011;7273;48.902;9.410;2024-03-02T16:23:20;0.30;;;0.30;;
9186;SDS011;7273;48.902;9.410;2024-03-02T16:25:45;1.27;;;0.80;;
9186;SDS011;7273;48.902;9.410;2024-03-02T16:28:10;0.63;;;0.63;;
9186;SDS011;7273;48.902;9.410;2024-03-02T16:30:36;1.10;;;0.80;;
9186;SDS011;7273;48.902;9.410;2024-03-02T16:33:01;1.85;;;1.15;;
9186;SDS011;7273;48.902;9.410;2024-03-02T16:35:27;1.05;;;0.40;;
9186;SDS011;7273;48.902;9.410;2024-03-02T16:37:53;2.20;;;0.52;;
9186;SDS011;7273;48.902;9.410;2024-03-02T16:40:18;0.60;;;0.40;;
9186;SDS011;7273;48.902;9.410;2024-03-02T16:42:43;1.60;;;0.60;;
9186;SDS011;7273;48.902;9.410;2024-03-02T16:45:09;0.45;;;0.43;;
9186;SDS011;7273;48.902;9.410;2024-03-02T16:47:34;1.45;;;0.88;;
9186;SDS011;7273;48.902;9.410;2024-03-02T16:50:00;1.33;;;0.70;;
9186;SDS011;7273;48.902;9.410;2024-03-02T16:52:26;1.27;;;0.60;;
9186;SDS011;7273;48.902;9.410;2024-03-02T16:54:52;0.80;;;0.60;;
9186;SDS011;7273;48.902;9.410;2024-03-02T16:57:18;2.83;;;0.50;;
9186;SDS011;7273;48.902;9.410;2024-03-02T16:59:43;2.05;;;0.73;;
9186;SDS011;7273;48.902;9.410;2024-03-02T17:02:09;3.17;;;0.90;;
9186;SDS011;7273;48.902;9.410;2024-03-02T17:07:03;0.57;;;0.30;;
9186;SDS011;7273;48.902;9.410;2024-03-02T17:09:29;1.92;;;1.27;;
9186;SDS011;7273;48.902;9.410;2024-03-02T17:11:55;1.00;;;0.47;;
9186;SDS011;7273;48.902;9.410;2024-03-02T17:14:20;0.73;;;0.45;;
9186;SDS011;7273;48.902;9.410;2024-03-02T17:16:45;2.55;;;1.30;;
9186;SDS011;7273;48.902;9.410;2024-03-02T17:19:11;8.48;;;0.77;;
9186;SDS011;7273;48.902;9.410;2024-03-02T17:21:36;1.55;;;0.73;;
9186;SDS011;7273;48.902;9.410;2024-03-02T17:24:01;0.65;;;0.55;;
9186;SDS011;7273;48.902;9.410;2024-03-02T17:26:30;2.65;;;1.15;;
9186;SDS011;7273;48.902;9.410;2024-03-02T17:28:55;1.52;;;0.85;;
9186;SDS011;7273;48.902;9.410;2024-03-02T17:31:21;0.80;;;0.40;;
9186;SDS011;7273;48.902;9.410;2024-03-02T17:33:46;0.85;;;0.85;;
9186;SDS011;7273;48.902;9.410;2024-03-02T17:36:12;2.08;;;0.85;;
9186;SDS011;7273;48.902;9.410;2024-03-02T17:38:39;1.30;;;0.80;;
9186;SDS011;7273;48.902;9.410;2024-03-02T17:41:05;1.00;;;0.52;;
9186;SDS011;7273;48.902;9.410;2024-03-02T17:43:32;1.20;;;0.90;;
9186;SDS011;7273;48.902;9.410;2024-03-02T17:46:01;11.00;;;1.35;;
9186;SDS011;7273;48.902;9.410;2024-03-02T17:48:27;2.28;;;1.20;;
9186;SDS011;7273;48.902;9.410;2024-03-02T17:50:53;3.65;;;1.42;;
9186;SDS011;7273;48.902;9.410;2024-03-02T17:53:18;4.25;;;1.17;;
9186;SDS011;7273;48.902;9.410;2024-03-02T17:55:44;1.50;;;1.10;;
9186;SDS011;7273;48.902;9.410;2024-03-02T17:58:09;1.80;;;1.10;;
9186;SDS011;7273;48.902;9.410;2024-03-02T18:00:35;0.90;;;0.55;;
9186;SDS011;7273;48.902;9.410;2024-03-02T18:03:00;1.45;;;0.80;;
9186;SDS011;7273;48.902;9.410;2024-03-02T18:05:26;2.72;;;1.63;;
9186;SDS011;7273;48.902;9.410;2024-03-02T18:07:51;4.57;;;1.00;;
9186;SDS011;7273;48.902;9.410;2024-03-02T18:10:17;3.72;;;1.30;;
9186;SDS011;7273;48.902;9.410;2024-03-02T18:12:42;3.47;;;1.60;;
9186;SDS011;7273;48.902;9.410;2024-03-02T18:15:08;6.07;;;2.03;;
9186;SDS011;7273;48.902;9.410;2024-03-02T18:17:34;2.65;;;1.25;;
9186;SDS011;7273;48.902;9.410;2024-03-02T18:20:00;3.33;;;1.80;;
9186;SDS011;7273;48.902;9.410;2024-03-02T18:22:26;2.80;;;1.52;;
9186;SDS011;7273;48.902;9.410;2024-03-02T18:24:51;1.05;;;0.77;;
9186;SDS011;7273;48.902;9.410;2024-03-02T18:27:16;2.22;;;1.15;;
9186;SDS011;7273;48.902;9.410;2024-03-02T18:29:43;1.90;;;1.00;;
9186;SDS011;7273;48.902;9.410;2024-03-02T18:32:08;5.13;;;1.35;;
9186;SDS011;7273;48.902;9.410;2024-03-02T18:34:34;3.80;;;1.30;;
9186;SDS011;7273;48.902;9.410;2024-03-02T18:36:59;6.40;;;1.90;;
9186;SDS011;7273;48.902;9.410;2024-03-02T18:39:25;1.95;;;1.05;;
9186;SDS011;7273;48.902;9.410;2024-03-02T18:41:50;4.40;;;1.98;;
9186;SDS011;7273;48.902;9.410;2024-03-02T18:44:16;1.02;;;0.80;;
9186;SDS011;7273;48.902;9.410;2024-03-02T18:46:41;3.63;;;1.20;;
9186;SDS011;7273;48.902;9.410;2024-03-02T18:49:07;3.83;;;1.25;;
9186;SDS011;7273;48.902;9.410;2024-03-02T18:51:32;1.77;;;1.55;;
9186;SDS011;7273;48.902;9.410;2024-03-02T18:53:58;3.38;;;1.75;;
9186;SDS011;7273;48.902;9.410;2024-03-02T18:56:23;2.72;;;1.38;;
9186;SDS011;7273;48.902;9.410;2024-03-02T18:58:48;4.63;;;1.75;;
9186;SDS011;7273;48.902;9.410;2024-03-02T19:01:14;1.65;;;0.80;;
9186;SDS011;7273;48.902;9.410;2024-03-02T19:03:40;4.72;;;2.38;;
9186;SDS011;7273;48.902;9.410;2024-03-02T19:06:06;3.25;;;1.98;;
9186;SDS011;7273;48.902;9.410;2024-03-02T19:08:33;2.80;;;1.75;;
9186;SDS011;7273;48.902;9.410;2024-03-02T19:10:58;3.40;;;2.22;;
9186;SDS011;7273;48.902;9.410;2024-03-02T19:13:24;6.88;;;3.17;;
9186;SDS011;7273;48.902;9.410;2024-03-02T19:15:50;11.27;;;2.65;;
9186;SDS011;7273;48.902;9.410;2024-03-02T19:18:15;1.60;;;0.68;;
9186;SDS011;7273;48.902;9.410;2024-03-02T19:20:41;5.45;;;2.80;;
9186;SDS011;7273;48.902;9.410;2024-03-02T19:23:06;3.83;;;1.30;;
9186;SDS011;7273;48.902;9.410;2024-03-02T19:25:32;4.80;;;1.95;;
9186;SDS011;7273;48.902;9.410;2024-03-02T19:27:58;3.83;;;1.40;;
9186;SDS011;7273;48.902;9.410;2024-03-02T19:30:23;7.72;;;1.80;;
9186;SDS011;7273;48.902;9.410;2024-03-02T19:32:50;4.28;;;2.30;;
9186;SDS011;7273;48.902;9.410;2024-03-02T19:35:16;6.80;;;2.95;;
9186;SDS011;7273;48.902;9.410;2024-03-02T19:37:41;3.40;;;1.88;;
9186;SDS011;7273;48.902;9.410;2024-03-02T19:40:07;8.65;;;2.03;;
9186;SDS011;7273;48.902;9.410;2024-03-02T19:42:33;3.20;;;1.58;;
9186;SDS011;7273;48.902;9.410;2024-03-02T19:45:00;6.40;;;2.22;;
9186;SDS011;7273;48.902;9.410;2024-03-02T19:47:26;2.47;;;1.67;;
9186;SDS011;7273;48.902;9.410;2024-03-02T19:49:51;4.18;;;2.03;;
9186;SDS011;7273;48.902;9.410;2024-03-02T19:52:17;2.40;;;1.23;;
9186;SDS011;7273;48.902;9.410;2024-03-02T19:54:42;3.45;;;2.40;;
9186;SDS011;7273;48.902;9.410;2024-03-02T19:57:08;11.02;;;2.00;;
9186;SDS011;7273;48.902;9.410;2024-03-02T19:59:33;9.27;;;3.17;;
9186;SDS011;7273;48.902;9.410;2024-03-02T20:01:59;8.93;;;2.92;;
9186;SDS011;7273;48.902;9.410;2024-03-02T20:04:24;5.45;;;2.60;;
9186;SDS011;7273;48.902;9.410;2024-03-02T20:06:50;6.20;;;2.75;;
9186;SDS011;7273;48.902;9.410;2024-03-02T20:09:20;2.22;;;1.25;;
9186;SDS011;7273;48.902;9.410;2024-03-02T20:11:46;3.95;;;2.30;;
9186;SDS011;7273;48.902;9.410;2024-03-02T20:14:12;5.47;;;2.60;;
9186;SDS011;7273;48.902;9.410;2024-03-02T20:16:41;3.25;;;1.85;;
9186;SDS011;7273;48.902;9.410;2024-03-02T20:19:10;4.10;;;2.28;;
9186;SDS011;7273;48.902;9.410;2024-03-02T20:21:36;4.63;;;2.33;;
9186;SDS011;7273;48.902;9.410;2024-03-02T20:24:01;6.00;;;3.65;;
9186;SDS011;7273;48.902;9.410;2024-03-02T20:26:26;4.95;;;1.60;;
9186;SDS011;7273;48.902;9.410;2024-03-02T20:28:52;5.35;;;2.50;;